Time;durP1;ratioP1;P1;durP2;ratioP2;P2;SDS_P1;SDS_P2;PMS_P1;PMS_P2;Temp;Humidity;BMP_temperature;BMP_pressure;BME280_temperature;BME280_humidity;BME280_pressure;Samples;Min_cycle;Max_cycle;Signal;HPM_P1;HPM_P2
2024/02/15 00:00:19;;;;;;;128.70;90.10;;;;;;;5.02;100.00;99443.14;109361;1252;66923;-72
2024/02/15 00:03:06;;;;;;;129.70;90.00;;;;;;;4.97;100.00;99443.33;109180;1252;61692;-72
2024/02/15 00:05:36;;;;;;;136.10;91.90;;;;;;;4.92;100.00;99445.08;109405;1252;65248;-72
2024/02/15 00:08:04;;;;;;;129.90;91.50;;;;;;;4.89;100.00;99445.39;109366;1253;59050;-72
2024/02/15 00:10:30;;;;;;;132.40;90.60;;;;;;;4.85;100.00;99446.07;109382;1253;58844;-72
2024/02/15 00:12:58;;;;;;;141.60;99.40;;;;;;;4.80;100.00;99445.34;109379;1255;67191;-71
2024/02/15 00:15:24;;;;;;;138.30;94.70;;;;;;;4.75;100.00;99447.81;109392;1252;60035;-71
2024/02/15 00:17:51;;;;;;;134.40;92.10;;;;;;;4.70;100.00;99452.20;109417;1252;64006;-72
2024/02/15 00:20:20;;;;;;;135.40;97.40;;;;;;;4.66;100.00;99450.26;109369;1252;59014;-72
2024/02/15 00:22:47;;;;;;;134.50;94.00;;;;;;;4.62;100.00;99450.21;109305;1252;59469;-72
2024/02/15 00:25:14;;;;;;;136.10;93.50;;;;;;;4.59;100.00;99450.84;109385;1252;66724;-72
2024/02/15 00:27:41;;;;;;;136.50;94.90;;;;;;;4.57;100.00;99450.20;109376;1253;60147;-72
2024/02/15 00:30:09;;;;;;;132.60;92.90;;;;;;;4.55;100.00;99452.23;109380;1252;65216;-72
2024/02/15 00:32:36;;;;;;;129.40;90.50;;;;;;;4.51;100.00;99455.35;108961;1252;59197;-71
2024/02/15 00:35:07;;;;;;;135.10;94.40;;;;;;;4.47;100.00;99457.25;109448;1252;59025;-71
2024/02/15 00:37:34;;;;;;;140.80;92.50;;;;;;;4.43;100.00;99458.10;109390;1252;65699;-72
2024/02/15 00:40:03;;;;;;;132.50;93.80;;;;;;;4.41;100.00;99455.70;109395;1252;60111;-71
2024/02/15 00:42:33;;;;;;;132.90;92.50;;;;;;;4.40;100.00;99461.17;109391;1252;63714;-72
2024/02/15 00:45:00;;;;;;;139.10;94.30;;;;;;;4.41;100.00;99463.95;109357;1252;59414;-73
2024/02/15 00:47:28;;;;;;;139.50;97.60;;;;;;;4.44;100.00;99465.80;109401;1252;59534;-72
2024/02/15 00:49:55;;;;;;;131.50;90.70;;;;;;;4.47;100.00;99465.17;109106;1252;65637;-72
2024/02/15 00:52:23;;;;;;;131.60;91.70;;;;;;;4.49;100.00;99464.21;109407;1252;60830;-72
2024/02/15 00:54:50;;;;;;;135.80;91.90;;;;;;;4.52;100.00;99466.40;109413;1252;64045;-72
2024/02/15 00:57:16;;;;;;;124.90;89.90;;;;;;;4.53;100.00;99468.30;109408;1252;58978;-72
2024/02/15 00:59:43;;;;;;;126.30;92.30;;;;;;;4.55;100.00;99471.93;109074;1252;58978;-72
2024/02/15 01:02:09;;;;;;;137.20;95.70;;;;;;;4.56;100.00;99473.46;109393;1252;66011;-72
2024/02/15 01:04:36;;;;;;;136.30;96.60;;;;;;;4.58;100.00;99472.17;109268;1253;59769;-72
2024/02/15 01:07:03;;;;;;;129.30;93.60;;;;;;;4.62;100.00;99476.09;109381;1252;65225;-71
2024/02/15 01:09:29;;;;;;;135.10;95.80;;;;;;;4.66;100.00;99478.59;109393;1252;59019;-71
2024/02/15 01:11:56;;;;;;;137.50;94.50;;;;;;;4.70;100.00;99477.74;109384;1252;59332;-73
2024/02/15 01:14:23;;;;;;;133.70;93.30;;;;;;;4.73;100.00;99476.75;109398;1252;66025;-72
2024/02/15 01:16:49;;;;;;;130.40;94.10;;;;;;;4.76;100.00;99479.10;109440;1252;60717;-72
2024/02/15 01:19:16;;;;;;;141.80;99.40;;;;;;;4.79;100.00;99483.39;109414;1252;65277;-72
2024/02/15 01:21:43;;;;;;;135.80;91.40;;;;;;;4.81;100.00;99481.20;109386;1252;59006;-73
2024/02/15 01:24:10;;;;;;;130.00;92.10;;;;;;;4.82;100.00;99481.91;109417;1252;59370;-72
2024/02/15 01:26:37;;;;;;;130.60;94.20;;;;;;;4.84;100.00;99484.83;109372;1253;67154;-71
2024/02/15 01:29:04;;;;;;;132.40;92.60;;;;;;;4.87;100.00;99483.67;109394;1253;59446;-72
2024/02/15 01:31:30;;;;;;;132.40;95.90;;;;;;;4.90;100.00;99481.27;109434;1253;64058;-71
2024/02/15 01:33:57;;;;;;;130.20;92.60;;;;;;;4.93;100.00;99479.92;109397;1253;59248;-72
2024/02/15 01:36:24;;;;;;;126.80;90.30;;;;;;;4.95;100.00;99477.55;109416;1253;59035;-71
2024/02/15 01:38:51;;;;;;;125.50;86.70;;;;;;;4.96;100.00;99475.58;109405;1253;67009;-73
2024/02/15 01:41:17;;;;;;;124.20;89.40;;;;;;;4.96;100.00;99477.00;109414;1253;68242;-73
2024/02/15 01:43:45;;;;;;;129.30;87.50;;;;;;;4.96;100.00;99474.55;109353;1253;65110;-73
2024/02/15 01:46:13;;;;;;;128.60;87.30;;;;;;;4.95;100.00;99473.14;109396;1253;59312;-72
2024/02/15 01:48:41;;;;;;;123.70;90.20;;;;;;;4.95;100.00;99469.80;109430;1253;59335;-71
2024/02/15 01:51:10;;;;;;;127.20;94.20;;;;;;;4.95;100.00;99468.73;109417;1253;65833;-71
2024/02/15 01:53:37;;;;;;;131.50;91.50;;;;;;;4.96;100.00;99465.73;109439;1253;60088;-72
2024/02/15 01:56:05;;;;;;;133.00;92.70;;;;;;;4.98;100.00;99465.47;109410;1253;65081;-72
2024/02/15 01:58:32;;;;;;;129.80;89.40;;;;;;;5.01;100.00;99461.14;109144;1253;59415;-73
2024/02/15 02:01:01;;;;;;;119.80;85.70;;;;;;;5.04;100.00;99456.81;109428;1253;58955;-71
2024/02/15 02:03:28;;;;;;;127.90;91.60;;;;;;;5.05;100.00;99453.92;109416;1253;65996;-72
2024/02/15 02:05:56;;;;;;;128.00;91.10;;;;;;;5.08;100.00;99454.02;109392;1253;61030;-73
2024/02/15 02:08:22;;;;;;;123.60;88.70;;;;;;;5.09;100.00;99453.98;109419;1252;65169;-72
2024/02/15 02:10:50;;;;;;;122.60;86.40;;;;;;;5.11;100.00;99453.73;109158;1253;58997;-72
2024/02/15 02:13:17;;;;;;;120.40;87.60;;;;;;;5.12;100.00;99451.23;109329;1253;59287;-73
2024/02/15 02:15:44;;;;;;;121.30;86.70;;;;;;;5.13;100.00;99449.08;109410;1253;66998;-72
2024/02/15 02:18:10;;;;;;;118.60;86.40;;;;;;;5.12;100.00;99445.92;109135;1252;61300;-73
2024/02/15 02:20:37;;;;;;;132.50;94.10;;;;;;;5.12;100.00;99447.00;109430;1253;64002;-72
2024/02/15 02:23:09;;;;;;;121.60;88.50;;;;;;;5.12;100.00;99446.11;109413;1252;59126;-71
2024/02/15 02:25:36;;;;;;;121.70;93.10;;;;;;;5.12;100.00;99441.87;109475;1253;58992;-72
2024/02/15 02:28:03;;;;;;;123.20;95.80;;;;;;;5.12;100.00;99443.63;109461;1253;66058;-72
2024/02/15 02:30:29;;;;;;;126.10;97.40;;;;;;;5.13;100.00;99439.23;109466;1253;61097;-72
2024/02/15 02:32:59;;;;;;;123.70;96.20;;;;;;;5.12;100.00;99437.48;109396;1253;65064;-71
2024/02/15 02:35:26;;;;;;;130.20;97.60;;;;;;;5.12;100.00;99437.12;109410;1253;59012;-72
2024/02/15 02:37:53;;;;;;;129.20;97.00;;;;;;;5.12;100.00;99439.58;109426;1253;59073;-72
2024/02/15 02:40:20;;;;;;;130.60;94.80;;;;;;;5.13;100.00;99441.33;109445;1253;66990;-72
2024/02/15 02:42:55;;;;;;;128.10;91.70;;;;;;;5.13;100.00;99440.97;109425;1252;60051;-72
2024/02/15 02:45:22;;;;;;;126.90;89.90;;;;;;;5.13;100.00;99441.83;109441;1252;63753;-71
2024/02/15 02:47:49;;;;;;;124.10;86.70;;;;;;;5.15;100.00;99440.00;109415;1252;59120;-71
2024/02/15 02:50:16;;;;;;;120.90;86.00;;;;;;;5.15;100.00;99438.59;109438;1252;59073;-72
2024/02/15 02:52:44;;;;;;;123.10;88.40;;;;;;;5.15;100.00;99438.05;109403;1253;65977;-73
2024/02/15 02:55:11;;;;;;;114.00;85.80;;;;;;;5.16;100.00;99437.86;109452;1252;61013;-72
2024/02/15 02:57:38;;;;;;;116.30;82.90;;;;;;;5.16;100.00;99436.27;109268;1252;73439;-73
2024/02/15 03:00:32;;;;;;;109.90;81.20;;;;;;;5.17;100.00;99437.64;109410;1252;59050;-73
2024/02/15 03:03:00;;;;;;;114.40;82.20;;;;;;;5.18;100.00;99437.95;109470;1252;58993;-73
2024/02/15 03:05:27;;;;;;;108.40;83.60;;;;;;;5.20;100.00;99434.55;109462;1252;65968;-71
2024/02/15 03:07:54;;;;;;;105.70;82.40;;;;;;;5.20;100.00;99436.82;109397;1252;60135;-71
2024/02/15 03:10:20;;;;;;;111.00;82.60;;;;;;;5.20;100.00;99435.60;109404;1252;64083;-71
2024/02/15 03:12:47;;;;;;;107.70;83.20;;;;;;;5.20;100.00;99431.91;109419;1252;59097;-73
2024/02/15 03:15:14;;;;;;;109.50;83.10;;;;;;;5.19;100.00;99428.59;109483;1252;59101;-71
2024/02/15 03:17:41;;;;;;;114.30;85.50;;;;;;;5.17;100.00;99424.59;109482;1252;66990;-72
2024/02/15 03:20:23;;;;;;;110.00;81.70;;;;;;;5.18;100.00;99425.64;109430;1252;60884;-70
2024/02/15 03:22:55;;;;;;;111.10;80.40;;;;;;;5.18;100.00;99426.53;109149;1253;65075;-72
2024/02/15 03:25:25;;;;;;;109.80;82.30;;;;;;;5.18;100.00;99430.20;109464;1252;59258;-72
2024/02/15 03:27:53;;;;;;;109.70;84.40;;;;;;;5.18;100.00;99430.20;109161;1252;59091;-72
2024/02/15 03:30:21;;;;;;;113.20;85.30;;;;;;;5.18;100.00;99429.32;109433;1252;65959;-72
2024/02/15 03:32:51;;;;;;;111.50;82.90;;;;;;;5.18;100.00;99426.67;109433;1253;61021;-72
2024/02/15 03:35:19;;;;;;;113.50;85.50;;;;;;;5.19;100.00;99427.02;109444;1252;65407;-73
2024/02/15 03:37:46;;;;;;;108.50;85.50;;;;;;;5.20;100.00;99425.04;109384;1252;59756;-72
2024/02/15 03:40:12;;;;;;;111.30;82.50;;;;;;;5.20;100.00;99428.53;109483;1252;58998;-71
2024/02/15 03:42:41;;;;;;;109.50;82.80;;;;;;;5.21;100.00;99430.27;109344;1252;65010;-71
2024/02/15 03:45:08;;;;;;;110.90;81.80;;;;;;;5.21;100.00;99430.81;109458;1252;59030;-72
2024/02/15 03:47:35;;;;;;;101.20;79.80;;;;;;;5.21;100.00;99429.56;109142;1252;65034;-72
2024/02/15 03:50:03;;;;;;;108.10;81.70;;;;;;;5.22;100.00;99431.29;109391;1252;58999;-71
2024/02/15 03:52:30;;;;;;;107.50;78.10;;;;;;;5.22;100.00;99437.27;109460;1252;59401;-72
2024/02/15 03:54:57;;;;;;;110.20;78.60;;;;;;;5.22;100.00;99436.73;109450;1252;67003;-72
2024/02/15 03:57:24;;;;;;;102.20;74.00;;;;;;;5.23;100.00;99431.23;109454;1253;69171;-71
2024/02/15 03:59:52;;;;;;;101.70;75.10;;;;;;;5.23;100.00;99430.52;109410;1252;65087;-72
2024/02/15 04:02:19;;;;;;;100.00;75.10;;;;;;;5.24;100.00;99430.33;109401;1252;59087;-72
2024/02/15 04:04:47;;;;;;;95.90;73.00;;;;;;;5.25;100.00;99426.77;109444;1252;59058;-72
2024/02/15 04:07:14;;;;;;;94.30;71.00;;;;;;;5.27;100.00;99428.30;109469;1252;65986;-72
2024/02/15 04:09:40;;;;;;;95.50;71.20;;;;;;;5.27;100.00;99430.20;109457;1252;61274;-72
2024/02/15 04:12:07;;;;;;;95.20;70.10;;;;;;;5.28;100.00;99425.42;109419;1252;65056;-72
2024/02/15 04:14:34;;;;;;;96.50;71.00;;;;;;;5.28;100.00;99422.76;109442;1252;59001;-72
2024/02/15 04:17:01;;;;;;;95.40;72.20;;;;;;;5.27;100.00;99422.09;109195;1252;59031;-72
2024/02/15 04:19:28;;;;;;;95.80;73.60;;;;;;;5.27;100.00;99424.55;109456;1252;67041;-71
2024/02/15 04:21:57;;;;;;;99.50;74.80;;;;;;;5.27;100.00;99426.67;109471;1252;61144;-72
2024/02/15 04:24:25;;;;;;;100.20;74.20;;;;;;;5.28;100.00;99428.23;109440;1252;65191;-73
2024/02/15 04:26:52;;;;;;;94.70;71.80;;;;;;;5.29;100.00;99431.56;109220;1252;59174;-73
2024/02/15 04:29:20;;;;;;;93.70;69.70;;;;;;;5.30;100.00;99430.29;109431;1252;59873;-71
2024/02/15 04:31:49;;;;;;;98.40;74.60;;;;;;;5.30;100.00;99428.35;109436;1252;66069;-72
2024/02/15 04:34:17;;;;;;;97.70;73.10;;;;;;;5.31;100.00;99431.84;109439;1256;61258;-72
2024/02/15 04:36:53;;;;;;;98.10;73.00;;;;;;;5.31;100.00;99432.70;109439;1252;65181;-72
2024/02/15 04:39:29;;;;;;;95.80;71.00;;;;;;;5.31;100.00;99434.10;109417;1252;59025;-71
2024/02/15 04:41:56;;;;;;;91.50;68.50;;;;;;;5.31;100.00;99433.44;109455;1252;59117;-72
2024/02/15 04:44:27;;;;;;;100.60;70.10;;;;;;;5.31;100.00;99429.73;109459;1252;67049;-72
2024/02/15 04:46:55;;;;;;;99.60;73.40;;;;;;;5.31;100.00;99430.27;109446;1252;61109;-73
2024/02/15 04:49:22;;;;;;;99.90;74.70;;;;;;;5.30;100.00;99429.95;109241;1252;64042;-72
2024/02/15 04:51:49;;;;;;;94.40;70.90;;;;;;;5.30;100.00;99429.42;109440;1252;58918;-72
2024/02/15 04:54:18;;;;;;;95.20;70.70;;;;;;;5.28;100.00;99431.41;109467;1252;58990;-72
2024/02/15 04:56:45;;;;;;;95.90;74.30;;;;;;;5.26;100.00;99431.85;109485;1252;65972;-72
2024/02/15 04:59:14;;;;;;;99.80;74.00;;;;;;;5.23;100.00;99432.30;109427;1252;60338;-72
2024/02/15 05:01:45;;;;;;;96.00;72.50;;;;;;;5.21;100.00;99436.60;109461;1252;65133;-71
2024/02/15 05:04:12;;;;;;;;;;;;;;;5.20;100.00;99441.08;109443;1253;58942;-72
2024/02/15 05:06:38;;;;;;;97.50;72.90;;;;;;;5.16;100.00;99444.18;109487;1252;59410;-73
2024/02/15 05:09:07;;;;;;;93.60;72.10;;;;;;;5.15;100.00;99443.18;109148;1252;67022;-73
2024/02/15 05:11:36;;;;;;;95.50;75.10;;;;;;;5.14;100.00;99441.65;109431;1252;61023;-71
2024/02/15 05:14:07;;;;;;;96.80;75.90;;;;;;;5.13;100.00;99445.71;109488;1252;64012;-72
2024/02/15 05:16:34;;;;;;;94.10;74.20;;;;;;;5.13;100.00;99446.58;109446;1256;58979;-71
2024/02/15 05:19:01;;;;;;;99.50;73.90;;;;;;;5.13;100.00;99447.84;109458;1252;59012;-72
2024/02/15 05:21:28;;;;;;;97.50;74.10;;;;;;;5.13;100.00;99450.11;109091;1252;67071;-71
2024/02/15 05:23:56;;;;;;;99.80;77.00;;;;;;;5.15;100.00;99452.88;109433;1252;60149;-72
2024/02/15 05:26:23;;;;;;;99.60;74.80;;;;;;;5.15;100.00;99457.45;109461;1252;65072;-74
2024/02/15 05:28:50;;;;;;;96.90;74.30;;;;;;;5.15;100.00;99458.84;109472;1252;59916;-72
2024/02/15 05:31:21;;;;;;;102.30;74.90;;;;;;;5.15;100.00;99460.43;109456;1252;59029;-72
2024/02/15 05:33:52;;;;;;;104.70;76.30;;;;;;;5.15;100.00;99463.07;109461;1252;67049;-71
2024/02/15 05:36:20;;;;;;;104.40;75.00;;;;;;;5.17;100.00;99466.01;109470;1252;61089;-73
2024/02/15 05:38:54;;;;;;;100.10;75.50;;;;;;;5.17;100.00;99464.76;109216;1252;65111;-72
2024/02/15 05:41:21;;;;;;;110.90;77.50;;;;;;;5.19;100.00;99464.02;109480;1252;59062;-71
2024/02/15 05:43:54;;;;;;;107.20;78.80;;;;;;;5.20;100.00;99464.15;109499;1252;59275;-71
2024/02/15 05:46:23;;;;;;;102.00;75.70;;;;;;;5.20;100.00;99460.63;109450;1252;67475;-72
2024/02/15 05:48:51;;;;;;;114.00;80.80;;;;;;;5.19;100.00;99465.23;109476;1252;60976;-73
2024/02/15 05:51:18;;;;;;;106.70;78.80;;;;;;;5.20;100.00;99467.13;109430;1252;64084;-72
2024/02/15 05:53:45;;;;;;;113.80;79.80;;;;;;;5.21;100.00;99464.79;109440;1252;58953;-73
2024/02/15 05:56:12;;;;;;;107.30;80.90;;;;;;;5.22;100.00;99467.73;109463;1252;59072;-73
2024/02/15 05:58:41;;;;;;;116.10;81.00;;;;;;;5.23;100.00;99469.64;109157;1252;65216;-72
2024/02/15 06:01:12;;;;;;;107.80;78.50;;;;;;;5.24;100.00;99472.60;109446;1253;61074;-73
2024/02/15 06:03:40;;;;;;;98.30;75.60;;;;;;;5.25;100.00;99475.20;109468;1252;64016;-71
2024/02/15 06:06:07;;;;;;;96.30;74.20;;;;;;;5.26;100.00;99476.77;109112;1252;58959;-72
2024/02/15 06:08:34;;;;;;;94.30;75.80;;;;;;;5.26;100.00;99477.62;109466;1252;59007;-73
2024/02/15 06:11:02;;;;;;;92.40;70.70;;;;;;;5.27;100.00;99480.95;109453;1252;65891;-72
2024/02/15 06:13:29;;;;;;;96.50;72.90;;;;;;;5.29;100.00;99482.64;109471;1252;60039;-73
2024/02/15 06:15:56;;;;;;;93.70;73.50;;;;;;;5.31;100.00;99480.81;109467;1252;65187;-72
2024/02/15 06:18:28;;;;;;;96.40;73.40;;;;;;;5.32;100.00;99482.88;109452;1252;58976;-72
2024/02/15 06:21:02;;;;;;;95.10;72.60;;;;;;;5.35;100.00;99485.09;109413;1252;58946;-72
2024/02/15 06:23:29;;;;;;;95.80;73.20;;;;;;;5.38;100.00;99485.67;109232;1252;65997;-73
2024/02/15 06:25:57;;;;;;;95.60;74.30;;;;;;;5.41;100.00;99488.70;109496;1252;59754;-73
2024/02/15 06:39:40;;;;;;;97.80;77.30;;;;;;;5.62;100.00;99499.53;109417;1252;60124;-71
2024/02/15 06:42:14;;;;;;;101.40;79.10;;;;;;;5.68;100.00;99499.48;109432;1253;63702;-73
2024/02/15 06:44:42;;;;;;;103.00;80.50;;;;;;;5.72;100.00;99499.33;109433;1252;59007;-73
2024/02/15 06:47:10;;;;;;;96.10;77.00;;;;;;;5.76;100.00;99504.83;109420;1252;59123;-73
2024/02/15 06:49:40;;;;;;;100.20;74.80;;;;;;;5.79;100.00;99505.94;109434;1252;65665;-71
2024/02/15 06:52:07;;;;;;;102.70;79.00;;;;;;;5.83;100.00;99511.41;109439;1253;61069;-71
2024/02/15 06:54:35;;;;;;;103.80;83.40;;;;;;;5.86;100.00;99512.52;109422;1252;65512;-72
2024/02/15 06:57:04;;;;;;;101.50;78.20;;;;;;;5.91;100.00;99509.86;109424;1252;59003;-72
2024/02/15 06:59:34;;;;;;;97.90;76.80;;;;;;;5.96;100.00;99506.91;109169;1252;59069;-72
2024/02/15 07:02:04;;;;;;;91.80;77.00;;;;;;;6.01;100.00;99509.33;109259;1252;66001;-73
2024/02/15 07:04:32;;;;;;;;;;;;;;;6.04;100.00;99508.84;109165;1252;59373;-73
2024/02/15 07:06:59;;;;;;;93.20;74.50;;;;;;;6.05;100.00;99508.98;109129;1252;64085;-72
2024/02/15 07:09:27;;;;;;;101.20;74.40;;;;;;;6.09;100.00;99511.65;109410;1253;59475;-72
2024/02/15 07:11:54;;;;;;;87.90;69.00;;;;;;;6.16;100.00;99514.19;109200;1252;59053;-73
2024/02/15 07:14:20;;;;;;;91.80;68.60;;;;;;;6.25;100.00;99515.40;109421;1252;67137;-72
2024/02/15 07:16:49;;;;;;;89.60;72.10;;;;;;;6.36;100.00;99514.95;109260;1252;59724;-72
2024/02/15 07:19:16;;;;;;;91.70;73.90;;;;;;;6.48;100.00;99514.27;109238;1252;65024;-71
2024/02/15 07:21:43;;;;;;;134.20;97.40;;;;;;;6.60;100.00;99512.88;109421;1252;58992;-72
2024/02/15 07:24:10;;;;;;;130.00;94.20;;;;;;;6.70;100.00;99510.52;109446;1252;58979;-71
2024/02/15 07:26:37;;;;;;;97.50;77.70;;;;;;;6.80;100.00;99509.38;109173;1252;66978;-72
2024/02/15 07:29:07;;;;;;;107.30;76.80;;;;;;;6.90;100.00;99504.38;109249;1252;60035;-72
2024/02/15 07:31:34;;;;;;;132.50;86.60;;;;;;;6.98;100.00;99505.42;109365;1253;65209;-72
2024/02/15 07:34:01;;;;;;;122.60;83.10;;;;;;;7.08;100.00;99505.52;109436;1252;59012;-71
2024/02/15 07:36:28;;;;;;;118.50;86.00;;;;;;;7.20;100.00;99504.11;109448;1252;58968;-72
2024/02/15 07:38:59;;;;;;;103.90;76.70;;;;;;;7.34;100.00;99506.14;109392;1252;65999;-72
2024/02/15 07:41:27;;;;;;;92.10;70.10;;;;;;;7.49;100.00;99504.36;109429;1252;60027;-72
2024/02/15 07:43:55;;;;;;;83.50;65.00;;;;;;;7.63;100.00;99504.59;109230;1253;65055;-72
2024/02/15 07:46:24;;;;;;;87.30;68.90;;;;;;;7.76;100.00;99501.15;109151;1253;59112;-73
2024/02/15 07:48:50;;;;;;;80.40;63.10;;;;;;;7.86;100.00;99501.58;109429;1252;59089;-73
2024/02/15 07:51:18;;;;;;;84.40;63.90;;;;;;;7.96;100.00;99501.97;109442;1253;66940;-72
2024/02/15 07:53:45;;;;;;;78.70;65.00;;;;;;;8.06;100.00;99502.58;109402;1253;61101;-72
2024/02/15 07:56:13;;;;;;;84.30;65.30;;;;;;;8.15;100.00;99500.35;109402;1253;64030;-72
2024/02/15 07:58:41;;;;;;;81.80;65.30;;;;;;;8.22;100.00;99499.85;109382;1253;59022;-73
2024/02/15 08:01:11;;;;;;;69.30;57.90;;;;;;;8.27;100.00;99499.05;109378;1256;58967;-72
2024/02/15 08:03:37;;;;;;;76.80;59.20;;;;;;;8.35;100.00;99497.05;109383;1256;66116;-73
2024/02/15 08:06:06;;;;;;;74.30;57.10;;;;;;;8.45;100.00;99493.05;109126;1253;60052;-72
2024/02/15 08:08:36;;;;;;;78.10;58.40;;;;;;;8.54;100.00;99493.51;109410;1253;64028;-74
2024/02/15 08:11:03;;;;;;;74.60;57.20;;;;;;;8.61;100.00;99491.57;109412;1256;59067;-74
2024/02/15 08:13:30;;;;;;;64.00;52.60;;;;;;;8.64;100.00;99491.96;109410;1253;59005;-74
2024/02/15 08:15:57;;;;;;;71.40;54.80;;;;;;;8.63;100.00;99490.08;109438;1252;67029;-72
2024/02/15 08:18:25;;;;;;;68.20;54.90;;;;;;;8.61;100.00;99492.27;109430;1252;61175;-72
2024/02/15 08:20:52;;;;;;;73.10;57.70;;;;;;;8.61;100.00;99495.80;109442;1253;65019;-72
2024/02/15 08:23:19;;;;;;;191.20;134.10;;;;;;;8.63;100.00;99495.52;109413;1253;58968;-72
2024/02/15 08:25:46;;;;;;;151.90;111.20;;;;;;;8.68;100.00;99494.23;109397;1253;59113;-72
2024/02/15 08:28:13;;;;;;;120.20;91.90;;;;;;;8.74;100.00;99494.57;109425;1254;67098;-73
2024/02/15 08:30:39;;;;;;;116.80;92.50;;;;;;;8.82;100.00;99497.55;109464;1257;61361;-72
2024/02/15 08:33:06;;;;;;;97.20;77.60;;;;;;;8.90;100.00;99498.55;109455;1254;65347;-73
2024/02/15 08:35:33;;;;;;;80.30;66.60;;;;;;;9.00;100.00;99494.16;109424;1253;59142;-73
2024/02/15 08:37:59;;;;;;;76.50;63.10;;;;;;;9.08;100.00;99495.30;109411;1255;59982;-73
2024/02/15 08:40:27;;;;;;;66.80;54.60;;;;;;;9.17;100.00;99492.54;109422;1254;66873;-73
2024/02/15 08:42:55;;;;;;;66.00;53.40;;;;;;;9.25;100.00;99490.14;109133;1260;60113;-73
2024/02/15 08:45:22;;;;;;;63.70;50.30;;;;;;;9.35;100.00;99490.31;109404;1253;64793;-71
2024/02/15 08:47:52;;;;;;;62.70;50.60;;;;;;;9.45;100.00;99489.63;109371;1253;58971;-73
2024/02/15 08:50:21;;;;;;;58.20;45.50;;;;;;;9.55;100.00;99489.42;109391;1252;59024;-73
2024/02/15 08:52:47;;;;;;;67.70;55.40;;;;;;;9.67;100.00;99486.28;109370;1256;65981;-71
2024/02/15 08:55:14;;;;;;;60.30;49.30;;;;;;;9.77;100.00;99486.07;109414;1253;60188;-73
2024/02/15 08:57:41;;;;;;;59.60;48.20;;;;;;;9.90;100.00;99491.71;109398;1252;64049;-73
2024/02/15 09:00:13;;;;;;;51.40;41.10;;;;;;;10.08;100.00;99491.80;109369;1253;58987;-72
2024/02/15 09:02:40;;;;;;;50.40;41.00;;;;;;;10.29;100.00;99489.35;109409;1254;59057;-71
2024/02/15 09:05:07;;;;;;;48.00;36.90;;;;;;;10.51;100.00;99488.42;109426;1253;66045;-72
2024/02/15 09:07:33;;;;;;;42.30;34.10;;;;;;;10.73;100.00;99486.06;109406;1256;60462;-72
2024/02/15 09:10:00;;;;;;;33.60;28.50;;;;;;;10.95;100.00;99483.01;109387;1256;63993;-72
2024/02/15 09:12:27;;;;;;;36.50;28.00;;;;;;;11.11;100.00;99480.25;109363;1252;59228;-72
2024/02/15 09:14:54;;;;;;;31.10;23.30;;;;;;;11.19;100.00;99477.77;109414;1253;59039;-73
2024/02/15 09:17:21;;;;;;;26.30;20.30;;;;;;;11.31;100.00;99478.98;109400;1253;67344;-71
2024/02/15 09:19:49;;;;;;;21.10;15.10;;;;;;;11.46;100.00;99480.70;109369;1255;60980;-72
2024/02/15 09:22:16;;;;;;;18.60;14.50;;;;;;;11.59;100.00;99476.88;109407;1253;65238;-72
2024/02/15 09:24:44;;;;;;;16.40;12.40;;;;;;;11.75;100.00;99475.86;109419;1254;58995;-72
2024/02/15 09:27:11;;;;;;;13.60;10.60;;;;;;;11.93;100.00;99474.71;109422;1254;59117;-72
2024/02/15 09:29:40;;;;;;;13.50;10.00;;;;;;;12.05;100.00;99471.66;109360;1253;66110;-72
2024/02/15 09:32:07;;;;;;;13.40;9.70;;;;;;;12.10;100.00;99470.61;109381;1254;60088;-72
2024/02/15 09:34:33;;;;;;;12.90;8.80;;;;;;;12.14;100.00;99473.88;109370;1254;63952;-73
2024/02/15 09:37:00;;;;;;;14.50;8.50;;;;;;;12.19;100.00;99474.13;109338;1253;59044;-71
2024/02/15 09:39:27;;;;;;;10.40;7.80;;;;;;;12.23;100.00;99474.70;109391;1256;58920;-72
2024/02/15 09:41:58;;;;;;;11.10;8.00;;;;;;;12.29;100.00;99476.80;109363;1253;67180;-72
2024/02/15 09:44:29;;;;;;;11.40;7.90;;;;;;;12.37;100.00;99476.29;109437;1253;61104;-72
2024/02/15 09:47:06;;;;;;;10.20;7.70;;;;;;;12.44;100.00;99477.06;109384;1253;65141;-72
2024/02/15 09:49:36;;;;;;;8.40;6.70;;;;;;;12.51;100.00;99476.23;109371;1252;59005;-72
2024/02/15 09:52:04;;;;;;;9.30;6.30;;;;;;;12.57;100.00;99478.50;109394;1254;59019;-73
2024/02/15 09:54:33;;;;;;;7.90;6.60;;;;;;;12.62;100.00;99479.41;109147;1253;67009;-71
2024/02/15 09:57:02;;;;;;;9.10;6.40;;;;;;;12.66;100.00;99478.25;109208;1254;61158;-73
2024/02/15 09:59:30;;;;;;;9.90;5.70;;;;;;;12.68;100.00;99479.35;109110;1252;64237;-72
2024/02/15 10:01:59;;;;;;;8.60;6.80;;;;;;;12.70;100.00;99479.76;109401;1253;59050;-73
2024/02/15 10:04:26;;;;;;;10.90;7.60;;;;;;;12.69;100.00;99480.35;109381;1254;59392;-72
2024/02/15 10:06:52;;;;;;;10.30;7.40;;;;;;;12.68;100.00;99477.41;109384;1253;67079;-72
2024/02/15 10:09:29;;;;;;;10.10;7.20;;;;;;;12.65;100.00;99478.50;109417;1253;60185;-72
2024/02/15 10:11:57;;;;;;;9.40;7.00;;;;;;;12.62;100.00;99476.79;109409;1253;64848;-72
2024/02/15 10:14:29;;;;;;;8.10;6.50;;;;;;;12.59;100.00;99479.80;109371;1253;59070;-72
2024/02/15 10:16:56;;;;;;;7.60;6.00;;;;;;;12.58;100.00;99475.41;109416;1253;59779;-72
2024/02/15 10:19:27;;;;;;;10.40;6.80;;;;;;;12.63;100.00;99473.46;109394;1254;66727;-72
2024/02/15 10:21:57;;;;;;;8.90;7.00;;;;;;;12.70;100.00;99478.90;109363;1252;61010;-72
2024/02/15 10:24:24;;;;;;;9.00;5.60;;;;;;;12.76;100.00;99474.37;109375;1254;64138;-73
2024/02/15 10:26:51;;;;;;;5.60;4.70;;;;;;;12.81;100.00;99469.92;109359;1254;59075;-73
2024/02/15 10:29:19;;;;;;;5.90;4.70;;;;;;;12.89;100.00;99469.02;109381;1253;58874;-71
2024/02/15 10:31:56;;;;;;;6.60;5.90;;;;;;;13.00;100.00;99462.07;109380;1254;66153;-71
2024/02/15 10:34:25;;;;;;;7.50;5.90;;;;;;;13.04;100.00;99460.91;109425;1253;60164;-72
2024/02/15 10:36:51;;;;;;;7.50;5.90;;;;;;;13.10;100.00;99459.37;109355;1254;65021;-73
2024/02/15 10:39:19;;;;;;;6.90;4.90;;;;;;;13.17;100.00;99461.52;109330;1253;59138;-71
2024/02/15 10:41:47;;;;;;;6.10;4.60;;;;;;;13.26;100.00;99461.89;109387;1254;58873;-73
2024/02/15 10:44:18;;;;;;;6.40;4.10;;;;;;;13.39;100.00;99460.56;109412;1253;67084;-73
2024/02/15 10:46:47;;;;;;;6.10;3.10;;;;;;;13.59;100.00;99457.20;109352;1254;61356;-71
2024/02/15 10:49:14;;;;;;;2.90;1.80;;;;;;;13.74;100.00;99453.77;109351;1254;65115;-73
2024/02/15 10:51:44;;;;;;;2.70;2.30;;;;;;;13.85;100.00;99452.79;109337;1253;59026;-72
2024/02/15 10:54:15;;;;;;;4.40;2.70;;;;;;;13.94;100.00;99448.95;109378;1254;58949;-72
2024/02/15 10:56:46;;;;;;;3.40;2.10;;;;;;;13.99;100.00;99449.77;109399;1253;66109;-72
2024/02/15 10:59:22;;;;;;;3.70;2.40;;;;;;;14.06;100.00;99446.98;109289;1254;60785;-73
2024/02/15 11:01:55;;;;;;;2.80;1.90;;;;;;;14.13;100.00;99443.41;109373;1253;65069;-72
2024/02/15 11:04:22;;;;;;;3.20;1.80;;;;;;;14.18;100.00;99441.98;109362;1254;59030;-72
2024/02/15 11:06:50;;;;;;;5.90;2.90;;;;;;;14.20;100.00;99446.98;109362;1254;58993;-73
2024/02/15 11:09:17;;;;;;;3.50;2.40;;;;;;;14.17;100.00;99447.55;109421;1253;67302;-73
2024/02/15 11:11:46;;;;;;;6.00;3.10;;;;;;;14.12;100.00;99445.64;109364;1254;60242;-73
2024/02/15 11:14:33;;;;;;;7.70;3.00;;;;;;;14.04;100.00;99440.89;109337;1254;64029;-72
2024/02/15 11:17:06;;;;;;;5.00;2.90;;;;;;;13.98;100.00;99444.51;109352;1253;59040;-72
2024/02/15 11:19:34;;;;;;;12.40;5.90;;;;;;;13.95;100.00;99444.73;109337;1254;58940;-72
2024/02/15 11:22:10;;;;;;;7.50;3.60;;;;;;;13.91;100.00;99440.55;109340;1253;67176;-73